sensor_id;sensor_type;location;lat;lon;timestamp;temperature;humidity
29341;DHT22;16337;59.536;13.468;2024-03-06T00:01:07;0.40;99.90
29341;DHT22;16337;59.536;13.468;2024-03-06T00:03:32;0.40;99.90
29341;DHT22;16337;59.536;13.468;2024-03-06T00:05:58;0.30;99.90
29341;DHT22;16337;59.536;13.468;2024-03-06T00:08:25;0.30;99.90
29341;DHT22;16337;59.536;13.468;2024-03-06T00:10:51;0.20;99.90
29341;DHT22;16337;59.536;13.468;2024-03-06T00:13:17;0.20;99.90
29341;DHT22;16337;59.536;13.468;2024-03-06T00:15:43;0.20;99.90
29341;DHT22;16337;59.536;13.468;2024-03-06T00:18:11;0.20;99.90
29341;DHT22;16337;59.536;13.468;2024-03-06T00:20:37;0.20;99.90
29341;DHT22;16337;59.536;13.468;2024-03-06T00:23:08;0.20;99.90
29341;DHT22;16337;59.536;13.468;2024-03-06T00:25:36;0.10;99.90
29341;DHT22;16337;59.536;13.468;2024-03-06T00:28:02;0.10;99.90
29341;DHT22;16337;59.536;13.468;2024-03-06T00:30:37;0.00;99.90
29341;DHT22;16337;59.536;13.468;2024-03-06T00:33:08;0.00;99.90
29341;DHT22;16337;59.536;13.468;2024-03-06T00:35:34;-0.10;99.90
29341;DHT22;16337;59.536;13.468;2024-03-06T00:37:59;-0.10;99.90
29341;DHT22;16337;59.536;13.468;2024-03-06T00:40:28;-0.20;99.90
29341;DHT22;16337;59.536;13.468;2024-03-06T00:42:59;-0.20;99.90
29341;DHT22;16337;59.536;13.468;2024-03-06T00:45:28;-0.30;99.90
29341;DHT22;16337;59.536;13.468;2024-03-06T00:47:53;-0.30;99.90
29341;DHT22;16337;59.536;13.468;2024-03-06T00:50:19;-0.40;99.90
29341;DHT22;16337;59.536;13.468;2024-03-06T00:52:47;-0.40;99.90
29341;DHT22;16337;59.536;13.468;2024-03-06T00:55:14;-0.40;99.90
29341;DHT22;16337;59.536;13.468;2024-03-06T00:57:39;-0.40;99.90
29341;DHT22;16337;59.536;13.468;2024-03-06T01:00:06;-0.50;99.90
29341;DHT22;16337;59.536;13.468;2024-03-06T01:02:38;-0.60;99.90
29341;DHT22;16337;59.536;13.468;2024-03-06T01:05:04;-0.60;99.90
29341;DHT22;16337;59.536;13.468;2024-03-06T01:07:30;-0.60;99.90
29341;DHT22;16337;59.536;13.468;2024-03-06T01:09:56;-0.70;99.90
29341;DHT22;16337;59.536;13.468;2024-03-06T01:12:25;-0.70;99.90
29341;DHT22;16337;59.536;13.468;2024-03-06T01:14:51;-0.80;99.90
29341;DHT22;16337;59.536;13.468;2024-03-06T01:17:16;-0.90;99.90
29341;DHT22;16337;59.536;13.468;2024-03-06T01:19:42;-0.90;99.90
29341;DHT22;16337;59.536;13.468;2024-03-06T01:22:11;-0.90;99.90
29341;DHT22;16337;59.536;13.468;2024-03-06T01:24:38;-1.00;99.90
29341;DHT22;16337;59.536;13.468;2024-03-06T01:27:04;-1.00;99.90
29341;DHT22;16337;59.536;13.468;2024-03-06T01:29:30;-1.00;99.90
29341;DHT22;16337;59.536;13.468;2024-03-06T01:31:56;-1.10;99.90
29341;DHT22;16337;59.536;13.468;2024-03-06T01:34:21;-1.10;99.90
29341;DHT22;16337;59.536;13.468;2024-03-06T01:36:48;-1.00;99.90
29341;DHT22;16337;59.536;13.468;2024-03-06T01:39:14;-1.00;99.90
29341;DHT22;16337;59.536;13.468;2024-03-06T01:41:46;-1.00;99.90
29341;DHT22;16337;59.536;13.468;2024-03-06T01:44:13;-1.00;99.90
29341;DHT22;16337;59.536;13.468;2024-03-06T01:46:39;-1.00;99.90
29341;DHT22;16337;59.536;13.468;2024-03-06T01:49:05;-1.00;99.90
29341;DHT22;16337;59.536;13.468;2024-03-06T01:51:32;-1.10;99.90
29341;DHT22;16337;59.536;13.468;2024-03-06T01:53:58;-1.10;99.90
29341;DHT22;16337;59.536;13.468;2024-03-06T01:56:26;-1.10;99.90
29341;DHT22;16337;59.536;13.468;2024-03-06T01:58:53;-1.10;99.90
29341;DHT22;16337;59.536;13.468;2024-03-06T02:01:20;-1.10;99.90
29341;DHT22;16337;59.536;13.468;2024-03-06T02:03:47;-1.10;99.90
29341;DHT22;16337;59.536;13.468;2024-03-06T02:06:14;-1.20;99.90
29341;DHT22;16337;59.536;13.468;2024-03-06T02:08:40;-1.20;99.90
29341;DHT22;16337;59.536;13.468;2024-03-06T02:11:06;-1.30;99.90
29341;DHT22;16337;59.536;13.468;2024-03-06T02:13:33;-1.20;99.90
29341;DHT22;16337;59.536;13.468;2024-03-06T02:15:59;-1.20;99.90
29341;DHT22;16337;59.536;13.468;2024-03-06T02:18:25;-1.20;99.90
29341;DHT22;16337;59.536;13.468;2024-03-06T02:20:50;-1.30;99.90
29341;DHT22;16337;59.536;13.468;2024-03-06T02:23:16;-1.20;99.90
29341;DHT22;16337;59.536;13.468;2024-03-06T02:25:44;-1.30;99.90
29341;DHT22;16337;59.536;13.468;2024-03-06T02:28:12;-1.30;99.90
29341;DHT22;16337;59.536;13.468;2024-03-06T02:30:38;-1.30;99.90
29341;DHT22;16337;59.536;13.468;2024-03-06T02:33:04;-1.30;99.90
29341;DHT22;16337;59.536;13.468;2024-03-06T02:35:32;-1.30;99.90
29341;DHT22;16337;59.536;13.468;2024-03-06T02:38:01;-1.30;99.90
29341;DHT22;16337;59.536;13.468;2024-03-06T02:40:28;-1.30;99.90
29341;DHT22;16337;59.536;13.468;2024-03-06T02:42:54;-1.20;99.90
29341;DHT22;16337;59.536;13.468;2024-03-06T02:45:20;-1.20;99.90
29341;DHT22;16337;59.536;13.468;2024-03-06T02:47:46;-1.10;99.90
29341;DHT22;16337;59.536;13.468;2024-03-06T02:50:12;-1.00;99.90
29341;DHT22;16337;59.536;13.468;2024-03-06T02:52:38;-1.00;99.90
29341;DHT22;16337;59.536;13.468;2024-03-06T02:55:04;-1.00;99.90
29341;DHT22;16337;59.536;13.468;2024-03-06T02:57:30;-1.00;99.90
29341;DHT22;16337;59.536;13.468;2024-03-06T02:59:57;-0.90;99.90
29341;DHT22;16337;59.536;13.468;2024-03-06T03:02:23;-0.90;99.90
29341;DHT22;16337;59.536;13.468;2024-03-06T03:04:52;-0.90;99.90
29341;DHT22;16337;59.536;13.468;2024-03-06T03:07:21;-0.80;99.90
29341;DHT22;16337;59.536;13.468;2024-03-06T03:09:47;-0.80;99.90
29341;DHT22;16337;59.536;13.468;2024-03-06T03:12:13;-0.80;99.90
29341;DHT22;16337;59.536;13.468;2024-03-06T03:14:40;-0.70;99.90
29341;DHT22;16337;59.536;13.468;2024-03-06T03:17:06;-0.80;99.90
29341;DHT22;16337;59.536;13.468;2024-03-06T03:19:32;-0.70;99.90
29341;DHT22;16337;59.536;13.468;2024-03-06T03:21:57;-0.70;99.90
29341;DHT22;16337;59.536;13.468;2024-03-06T03:24:24;-0.70;99.90
29341;DHT22;16337;59.536;13.468;2024-03-06T03:26:52;-0.70;99.90
29341;DHT22;16337;59.536;13.468;2024-03-06T03:29:18;-0.70;99.90
29341;DHT22;16337;59.536;13.468;2024-03-06T03:31:44;-0.60;99.90
29341;DHT22;16337;59.536;13.468;2024-03-06T03:34:10;-0.60;99.90
29341;DHT22;16337;59.536;13.468;2024-03-06T03:36:42;-0.60;99.90
29341;DHT22;16337;59.536;13.468;2024-03-06T03:39:09;-0.60;99.90
29341;DHT22;16337;59.536;13.468;2024-03-06T03:41:47;-0.60;99.90
29341;DHT22;16337;59.536;13.468;2024-03-06T03:44:14;-0.60;99.90
29341;DHT22;16337;59.536;13.468;2024-03-06T03:46:39;-0.50;99.90
29341;DHT22;16337;59.536;13.468;2024-03-06T03:49:05;-0.50;99.90
29341;DHT22;16337;59.536;13.468;2024-03-06T03:51:31;-0.50;99.90
29341;DHT22;16337;59.536;13.468;2024-03-06T03:53:56;-0.50;99.90
29341;DHT22;16337;59.536;13.468;2024-03-06T03:56:22;-0.40;99.90
29341;DHT22;16337;59.536;13.468;2024-03-06T03:58:48;-0.40;99.90
29341;DHT22;16337;59.536;13.468;2024-03-06T04:01:13;-0.40;99.90
29341;DHT22;16337;59.536;13.468;2024-03-06T04:03:39;-0.40;99.90
29341;DHT22;16337;59.536;13.468;2024-03-06T04:06:06;-0.40;99.90
29341;DHT22;16337;59.536;13.468;2024-03-06T04:08:32;-0.40;99.90
29341;DHT22;16337;59.536;13.468;2024-03-06T04:10:58;-0.30;99.90
29341;DHT22;16337;59.536;13.468;2024-03-06T04:13:24;-0.40;99.90
29341;DHT22;16337;59.536;13.468;2024-03-06T04:15:49;-0.40;99.90
29341;DHT22;16337;59.536;13.468;2024-03-06T04:18:15;-0.40;99.90
29341;DHT22;16337;59.536;13.468;2024-03-06T04:20:41;-0.30;99.90
29341;DHT22;16337;59.536;13.468;2024-03-06T04:23:06;-0.30;99.90
29341;DHT22;16337;59.536;13.468;2024-03-06T04:25:32;-0.30;99.90
29341;DHT22;16337;59.536;13.468;2024-03-06T04:27:58;-0.40;99.90
29341;DHT22;16337;59.536;13.468;2024-03-06T04:30:24;-0.30;99.90
29341;DHT22;16337;59.536;13.468;2024-03-06T04:32:50;-0.30;99.90
29341;DHT22;16337;59.536;13.468;2024-03-06T04:35:16;-0.30;99.90
29341;DHT22;16337;59.536;13.468;2024-03-06T04:37:41;-0.30;99.90
29341;DHT22;16337;59.536;13.468;2024-03-06T04:40:07;-0.40;99.90
29341;DHT22;16337;59.536;13.468;2024-03-06T04:42:36;-0.40;99.90
29341;DHT22;16337;59.536;13.468;2024-03-06T04:45:19;-0.30;99.90
29341;DHT22;16337;59.536;13.468;2024-03-06T04:47:45;-0.30;99.90
29341;DHT22;16337;59.536;13.468;2024-03-06T04:50:12;-0.30;99.90
29341;DHT22;16337;59.536;13.468;2024-03-06T04:52:39;-0.20;99.90
29341;DHT22;16337;59.536;13.468;2024-03-06T04:55:06;-0.30;99.90
29341;DHT22;16337;59.536;13.468;2024-03-06T04:57:32;-0.20;99.90
29341;DHT22;16337;59.536;13.468;2024-03-06T04:59:58;-0.30;99.90
29341;DHT22;16337;59.536;13.468;2024-03-06T05:02:24;-0.40;99.90
29341;DHT22;16337;59.536;13.468;2024-03-06T05:04:52;-0.30;99.90
29341;DHT22;16337;59.536;13.468;2024-03-06T05:07:18;-0.30;99.90
29341;DHT22;16337;59.536;13.468;2024-03-06T05:09:44;-0.40;99.90
29341;DHT22;16337;59.536;13.468;2024-03-06T05:12:09;-0.40;99.90
29341;DHT22;16337;59.536;13.468;2024-03-06T05:14:35;-0.40;99.90
29341;DHT22;16337;59.536;13.468;2024-03-06T05:17:01;-0.30;99.90
29341;DHT22;16337;59.536;13.468;2024-03-06T05:19:27;-0.30;99.90
29341;DHT22;16337;59.536;13.468;2024-03-06T05:21:58;-0.30;99.90
29341;DHT22;16337;59.536;13.468;2024-03-06T05:24:23;-0.40;99.90
29341;DHT22;16337;59.536;13.468;2024-03-06T05:26:49;-0.40;99.90
29341;DHT22;16337;59.536;13.468;2024-03-06T05:29:15;-0.40;99.90
29341;DHT22;16337;59.536;13.468;2024-03-06T05:31:40;-0.30;99.90
29341;DHT22;16337;59.536;13.468;2024-03-06T05:34:06;-0.30;99.90
29341;DHT22;16337;59.536;13.468;2024-03-06T05:36:32;-0.30;99.90
29341;DHT22;16337;59.536;13.468;2024-03-06T05:38:58;-0.30;99.90
29341;DHT22;16337;59.536;13.468;2024-03-06T05:41:23;-0.30;99.90
29341;DHT22;16337;59.536;13.468;2024-03-06T05:43:49;-0.20;99.90
29341;DHT22;16337;59.536;13.468;2024-03-06T05:46:14;-0.20;99.90
29341;DHT22;16337;59.536;13.468;2024-03-06T05:48:41;-0.20;99.90
29341;DHT22;16337;59.536;13.468;2024-03-06T05:51:07;-0.10;99.90
29341;DHT22;16337;59.536;13.468;2024-03-06T05:53:39;-0.20;99.90
29341;DHT22;16337;59.536;13.468;2024-03-06T05:56:07;-0.20;99.90
29341;DHT22;16337;59.536;13.468;2024-03-06T05:58:33;-0.10;99.90
29341;DHT22;16337;59.536;13.468;2024-03-06T06:01:00;-0.20;99.90
29341;DHT22;16337;59.536;13.468;2024-03-06T06:03:27;-0.20;99.90
29341;DHT22;16337;59.536;13.468;2024-03-06T06:05:54;-0.20;99.90
29341;DHT22;16337;59.536;13.468;2024-03-06T06:08:19;-0.20;99.90
29341;DHT22;16337;59.536;13.468;2024-03-06T06:10:45;-0.10;99.90
29341;DHT22;16337;59.536;13.468;2024-03-06T06:13:11;-0.10;99.90
29341;DHT22;16337;59.536;13.468;2024-03-06T06:15:37;-0.10;99.90
29341;DHT22;16337;59.536;13.468;2024-03-06T06:18:02;-0.10;99.90
29341;DHT22;16337;59.536;13.468;2024-03-06T06:20:28;-0.10;99.90
29341;DHT22;16337;59.536;13.468;2024-03-06T06:22:54;-0.10;99.90
29341;DHT22;16337;59.536;13.468;2024-03-06T06:25:20;0.00;99.90
29341;DHT22;16337;59.536;13.468;2024-03-06T06:27:45;0.00;99.90
29341;DHT22;16337;59.536;13.468;2024-03-06T06:30:11;0.00;99.90
29341;DHT22;16337;59.536;13.468;2024-03-06T06:32:40;0.00;99.90
29341;DHT22;16337;59.536;13.468;2024-03-06T06:35:07;0.10;99.90
29341;DHT22;16337;59.536;13.468;2024-03-06T06:37:33;0.10;99.90
29341;DHT22;16337;59.536;13.468;2024-03-06T06:39:59;0.10;99.90
29341;DHT22;16337;59.536;13.468;2024-03-06T06:42:25;0.10;99.90
29341;DHT22;16337;59.536;13.468;2024-03-06T06:44:51;0.00;99.90
29341;DHT22;16337;59.536;13.468;2024-03-06T06:47:17;0.10;99.90
29341;DHT22;16337;59.536;13.468;2024-03-06T06:49:43;0.10;99.90
29341;DHT22;16337;59.536;13.468;2024-03-06T06:52:10;0.20;99.90
29341;DHT22;16337;59.536;13.468;2024-03-06T06:54:35;0.20;99.90
29341;DHT22;16337;59.536;13.468;2024-03-06T06:57:01;0.20;99.90
29341;DHT22;16337;59.536;13.468;2024-03-06T06:59:28;0.20;99.90
29341;DHT22;16337;59.536;13.468;2024-03-06T07:01:54;0.30;99.90
29341;DHT22;16337;59.536;13.468;2024-03-06T07:04:20;0.30;99.90
29341;DHT22;16337;59.536;13.468;2024-03-06T07:06:46;0.30;99.90
29341;DHT22;16337;59.536;13.468;2024-03-06T07:09:12;0.30;99.90
29341;DHT22;16337;59.536;13.468;2024-03-06T07:11:41;0.20;99.90
29341;DHT22;16337;59.536;13.468;2024-03-06T07:14:08;0.30;99.90
29341;DHT22;16337;59.536;13.468;2024-03-06T07:16:33;0.40;99.90
29341;DHT22;16337;59.536;13.468;2024-03-06T07:18:59;0.30;99.90
29341;DHT22;16337;59.536;13.468;2024-03-06T07:21:25;0.30;99.90
29341;DHT22;16337;59.536;13.468;2024-03-06T07:23:51;0.30;99.90
29341;DHT22;16337;59.536;13.468;2024-03-06T07:26:17;0.40;99.90
29341;DHT22;16337;59.536;13.468;2024-03-06T07:28:42;0.40;99.90
29341;DHT22;16337;59.536;13.468;2024-03-06T07:31:08;0.40;99.90
29341;DHT22;16337;59.536;13.468;2024-03-06T07:33:33;0.50;99.90
29341;DHT22;16337;59.536;13.468;2024-03-06T07:35:59;0.50;99.90
29341;DHT22;16337;59.536;13.468;2024-03-06T07:38:25;0.50;99.90
29341;DHT22;16337;59.536;13.468;2024-03-06T07:40:51;0.50;99.90
29341;DHT22;16337;59.536;13.468;2024-03-06T07:43:16;0.60;99.90
29341;DHT22;16337;59.536;13.468;2024-03-06T07:45:42;0.60;99.90
29341;DHT22;16337;59.536;13.468;2024-03-06T07:48:08;0.70;99.90
29341;DHT22;16337;59.536;13.468;2024-03-06T07:50:35;0.80;99.90
29341;DHT22;16337;59.536;13.468;2024-03-06T07:53:00;0.70;99.90
29341;DHT22;16337;59.536;13.468;2024-03-06T07:55:27;0.80;99.90
29341;DHT22;16337;59.536;13.468;2024-03-06T07:57:53;0.80;99.90
29341;DHT22;16337;59.536;13.468;2024-03-06T08:00:19;0.80;99.90
29341;DHT22;16337;59.536;13.468;2024-03-06T08:02:45;0.80;99.90
29341;DHT22;16337;59.536;13.468;2024-03-06T08:05:16;0.90;99.90
29341;DHT22;16337;59.536;13.468;2024-03-06T08:07:42;0.90;99.90
29341;DHT22;16337;59.536;13.468;2024-03-06T08:10:12;0.90;99.90
29341;DHT22;16337;59.536;13.468;2024-03-06T08:12:42;1.00;99.90
29341;DHT22;16337;59.536;13.468;2024-03-06T08:15:09;1.00;99.90
29341;DHT22;16337;59.536;13.468;2024-03-06T08:17:38;1.00;99.90
29341;DHT22;16337;59.536;13.468;2024-03-06T08:20:04;1.10;99.90
29341;DHT22;16337;59.536;13.468;2024-03-06T08:22:40;1.10;99.90
29341;DHT22;16337;59.536;13.468;2024-03-06T08:25:11;1.00;99.90
29341;DHT22;16337;59.536;13.468;2024-03-06T08:27:40;1.10;99.90
29341;DHT22;16337;59.536;13.468;2024-03-06T08:30:07;1.10;99.90
29341;DHT22;16337;59.536;13.468;2024-03-06T08:32:33;1.10;99.90
29341;DHT22;16337;59.536;13.468;2024-03-06T08:35:13;1.20;99.90
29341;DHT22;16337;59.536;13.468;2024-03-06T08:37:40;1.20;99.90
29341;DHT22;16337;59.536;13.468;2024-03-06T08:40:06;1.30;99.90
29341;DHT22;16337;59.536;13.468;2024-03-06T08:42:46;1.30;99.90
29341;DHT22;16337;59.536;13.468;2024-03-06T08:45:16;1.30;99.90
29341;DHT22;16337;59.536;13.468;2024-03-06T08:47:43;1.30;99.90
29341;DHT22;16337;59.536;13.468;2024-03-06T08:50:10;1.20;99.90
29341;DHT22;16337;59.536;13.468;2024-03-06T08:52:36;1.30;99.90
29341;DHT22;16337;59.536;13.468;2024-03-06T08:55:02;1.30;99.90
29341;DHT22;16337;59.536;13.468;2024-03-06T08:57:38;1.50;99.90
29341;DHT22;16337;59.536;13.468;2024-03-06T09:00:05;1.70;99.90
29341;DHT22;16337;59.536;13.468;2024-03-06T09:02:37;1.70;99.90
29341;DHT22;16337;59.536;13.468;2024-03-06T09:05:07;1.80;99.90
29341;DHT22;16337;59.536;13.468;2024-03-06T09:07:38;1.90;99.90
29341;DHT22;16337;59.536;13.468;2024-03-06T09:10:10;1.80;99.90
29341;DHT22;16337;59.536;13.468;2024-03-06T09:12:36;1.90;99.90
29341;DHT22;16337;59.536;13.468;2024-03-06T09:15:03;1.90;99.90
29341;DHT22;16337;59.536;13.468;2024-03-06T09:17:29;2.00;99.90
29341;DHT22;16337;59.536;13.468;2024-03-06T09:19:56;2.10;99.90
29341;DHT22;16337;59.536;13.468;2024-03-06T09:22:22;2.30;99.90
29341;DHT22;16337;59.536;13.468;2024-03-06T09:24:48;2.40;99.90
29341;DHT22;16337;59.536;13.468;2024-03-06T09:27:14;2.30;99.90
29341;DHT22;16337;59.536;13.468;2024-03-06T09:29:40;2.30;99.90
29341;DHT22;16337;59.536;13.468;2024-03-06T09:32:06;2.40;99.90
29341;DHT22;16337;59.536;13.468;2024-03-06T09:34:32;2.20;99.90
29341;DHT22;16337;59.536;13.468;2024-03-06T09:36:57;2.20;99.90
29341;DHT22;16337;59.536;13.468;2024-03-06T09:39:23;2.20;99.90
29341;DHT22;16337;59.536;13.468;2024-03-06T09:41:55;2.20;99.90
29341;DHT22;16337;59.536;13.468;2024-03-06T09:44:22;2.40;99.90
29341;DHT22;16337;59.536;13.468;2024-03-06T09:46:49;2.40;99.90
29341;DHT22;16337;59.536;13.468;2024-03-06T09:49:17;2.50;99.90
29341;DHT22;16337;59.536;13.468;2024-03-06T09:51:44;2.90;99.90
29341;DHT22;16337;59.536;13.468;2024-03-06T09:54:14;2.90;99.90
29341;DHT22;16337;59.536;13.468;2024-03-06T09:56:44;3.30;99.90
29341;DHT22;16337;59.536;13.468;2024-03-06T09:59:10;3.90;99.90
29341;DHT22;16337;59.536;13.468;2024-03-06T10:01:46;4.20;99.90
29341;DHT22;16337;59.536;13.468;2024-03-06T10:04:24;4.50;99.90
29341;DHT22;16337;59.536;13.468;2024-03-06T10:06:59;4.60;99.90
29341;DHT22;16337;59.536;13.468;2024-03-06T10:09:26;4.40;99.90
29341;DHT22;16337;59.536;13.468;2024-03-06T10:11:52;4.50;99.90
29341;DHT22;16337;59.536;13.468;2024-03-06T10:14:19;4.70;99.90
29341;DHT22;16337;59.536;13.468;2024-03-06T10:17:00;4.80;99.90
29341;DHT22;16337;59.536;13.468;2024-03-06T10:19:28;4.80;99.90
29341;DHT22;16337;59.536;13.468;2024-03-06T10:21:55;4.70;99.90
29341;DHT22;16337;59.536;13.468;2024-03-06T10:24:27;4.30;99.90
29341;DHT22;16337;59.536;13.468;2024-03-06T10:26:55;4.70;99.90
29341;DHT22;16337;59.536;13.468;2024-03-06T10:29:26;5.10;99.90
29341;DHT22;16337;59.536;13.468;2024-03-06T10:31:53;5.40;99.90
29341;DHT22;16337;59.536;13.468;2024-03-06T10:34:26;5.40;99.90
29341;DHT22;16337;59.536;13.468;2024-03-06T10:36:54;5.40;99.90
29341;DHT22;16337;59.536;13.468;2024-03-06T10:39:21;5.80;99.90
29341;DHT22;16337;59.536;13.468;2024-03-06T10:41:56;6.00;99.90
29341;DHT22;16337;59.536;13.468;2024-03-06T10:44:26;5.50;99.90
29341;DHT22;16337;59.536;13.468;2024-03-06T10:46:59;5.50;99.90
29341;DHT22;16337;59.536;13.468;2024-03-06T10:49:30;5.80;99.90
29341;DHT22;16337;59.536;13.468;2024-03-06T10:52:01;5.50;99.90
29341;DHT22;16337;59.536;13.468;2024-03-06T10:54:27;5.70;99.90
29341;DHT22;16337;59.536;13.468;2024-03-06T10:56:55;5.60;99.90
29341;DHT22;16337;59.536;13.468;2024-03-06T10:59:23;6.10;99.90
29341;DHT22;16337;59.536;13.468;2024-03-06T11:01:51;6.40;99.90
29341;DHT22;16337;59.536;13.468;2024-03-06T11:04:17;6.40;99.90
29341;DHT22;16337;59.536;13.468;2024-03-06T11:06:43;6.70;99.90
29341;DHT22;16337;59.536;13.468;2024-03-06T11:09:10;6.30;99.90
29341;DHT22;16337;59.536;13.468;2024-03-06T11:11:50;6.70;99.90
29341;DHT22;16337;59.536;13.468;2024-03-06T11:14:17;6.60;99.90
29341;DHT22;16337;59.536;13.468;2024-03-06T11:19:32;7.20;99.90
29341;DHT22;16337;59.536;13.468;2024-03-06T11:22:17;7.60;99.90
29341;DHT22;16337;59.536;13.468;2024-03-06T11:24:43;7.80;99.90
29341;DHT22;16337;59.536;13.468;2024-03-06T11:27:09;8.00;99.90
29341;DHT22;16337;59.536;13.468;2024-03-06T11:30:08;8.00;99.90
29341;DHT22;16337;59.536;13.468;2024-03-06T11:32:57;8.10;99.90
29341;DHT22;16337;59.536;13.468;2024-03-06T11:35:24;8.10;99.90
29341;DHT22;16337;59.536;13.468;2024-03-06T11:37:50;8.10;99.90
29341;DHT22;16337;59.536;13.468;2024-03-06T11:40:23;8.30;99.90
29341;DHT22;16337;59.536;13.468;2024-03-06T11:42:49;8.30;99.90
29341;DHT22;16337;59.536;13.468;2024-03-06T11:45:19;8.10;99.90
29341;DHT22;16337;59.536;13.468;2024-03-06T11:48:03;7.90;99.90
29341;DHT22;16337;59.536;13.468;2024-03-06T11:50:29;7.60;99.90
29341;DHT22;16337;59.536;13.468;2024-03-06T11:52:58;6.90;99.90
29341;DHT22;16337;59.536;13.468;2024-03-06T11:55:24;6.60;99.90
29341;DHT22;16337;59.536;13.468;2024-03-06T11:57:53;7.20;99.90
29341;DHT22;16337;59.536;13.468;2024-03-06T12:00:22;7.70;99.90
29341;DHT22;16337;59.536;13.468;2024-03-06T12:02:49;8.00;99.90
29341;DHT22;16337;59.536;13.468;2024-03-06T12:05:15;8.10;99.90
29341;DHT22;16337;59.536;13.468;2024-03-06T12:07:51;8.30;99.90
29341;DHT22;16337;59.536;13.468;2024-03-06T12:10:17;8.30;99.90
29341;DHT22;16337;59.536;13.468;2024-03-06T12:12:44;8.10;99.90
29341;DHT22;16337;59.536;13.468;2024-03-06T12:15:10;8.20;99.90
29341;DHT22;16337;59.536;13.468;2024-03-06T12:17:48;8.10;99.90
29341;DHT22;16337;59.536;13.468;2024-03-06T12:20:16;8.20;99.90
29341;DHT22;16337;59.536;13.468;2024-03-06T12:22:48;8.50;99.90
29341;DHT22;16337;59.536;13.468;2024-03-06T12:25:20;9.00;99.90
29341;DHT22;16337;59.536;13.468;2024-03-06T12:27:46;9.10;99.90
29341;DHT22;16337;59.536;13.468;2024-03-06T12:30:16;8.80;99.90
29341;DHT22;16337;59.536;13.468;2024-03-06T12:32:44;8.40;99.90
29341;DHT22;16337;59.536;13.468;2024-03-06T12:35:09;8.10;99.90
29341;DHT22;16337;59.536;13.468;2024-03-06T12:37:35;7.70;99.90
29341;DHT22;16337;59.536;13.468;2024-03-06T12:40:02;7.80;99.90
29341;DHT22;16337;59.536;13.468;2024-03-06T12:42:30;8.00;99.90
29341;DHT22;16337;59.536;13.468;2024-03-06T12:44:56;7.90;99.90
29341;DHT22;16337;59.536;13.468;2024-03-06T12:47:22;7.70;99.90
29341;DHT22;16337;59.536;13.468;2024-03-06T12:49:48;8.00;99.90
29341;DHT22;16337;59.536;13.468;2024-03-06T12:52:13;8.00;99.90
29341;DHT22;16337;59.536;13.468;2024-03-06T12:54:39;8.10;99.90
29341;DHT22;16337;59.536;13.468;2024-03-06T12:57:05;8.10;99.90
29341;DHT22;16337;59.536;13.468;2024-03-06T12:59:31;8.00;99.90
29341;DHT22;16337;59.536;13.468;2024-03-06T13:01:56;7.80;99.90
29341;DHT22;16337;59.536;13.468;2024-03-06T13:04:22;7.50;99.90
29341;DHT22;16337;59.536;13.468;2024-03-06T13:06:48;7.40;99.90
29341;DHT22;16337;59.536;13.468;2024-03-06T13:09:14;7.60;99.90
29341;DHT22;16337;59.536;13.468;2024-03-06T13:11:40;7.60;99.90
29341;DHT22;16337;59.536;13.468;2024-03-06T13:14:07;7.40;99.90
29341;DHT22;16337;59.536;13.468;2024-03-06T13:16:36;7.50;99.90
29341;DHT22;16337;59.536;13.468;2024-03-06T13:19:02;7.50;99.90
29341;DHT22;16337;59.536;13.468;2024-03-06T13:21:29;7.20;99.90
29341;DHT22;16337;59.536;13.468;2024-03-06T13:24:04;7.10;99.90
29341;DHT22;16337;59.536;13.468;2024-03-06T13:26:33;6.90;99.90
29341;DHT22;16337;59.536;13.468;2024-03-06T13:28:58;6.80;99.90
29341;DHT22;16337;59.536;13.468;2024-03-06T13:31:25;6.60;99.90
29341;DHT22;16337;59.536;13.468;2024-03-06T13:33:50;6.80;99.90
29341;DHT22;16337;59.536;13.468;2024-03-06T13:36:16;7.10;99.90
29341;DHT22;16337;59.536;13.468;2024-03-06T13:38:42;8.30;99.90
29341;DHT22;16337;59.536;13.468;2024-03-06T13:41:07;9.20;99.90
29341;DHT22;16337;59.536;13.468;2024-03-06T13:43:33;8.80;99.90
29341;DHT22;16337;59.536;13.468;2024-03-06T13:45:59;8.20;99.90
29341;DHT22;16337;59.536;13.468;2024-03-06T13:48:24;8.40;99.90
29341;DHT22;16337;59.536;13.468;2024-03-06T13:50:50;9.40;99.90
29341;DHT22;16337;59.536;13.468;2024-03-06T13:53:16;8.60;99.90
29341;DHT22;16337;59.536;13.468;2024-03-06T13:55:42;7.50;99.90
29341;DHT22;16337;59.536;13.468;2024-03-06T13:58:08;7.10;99.90
29341;DHT22;16337;59.536;13.468;2024-03-06T14:00:33;6.30;99.90
29341;DHT22;16337;59.536;13.468;2024-03-06T14:03:01;5.70;99.90
29341;DHT22;16337;59.536;13.468;2024-03-06T14:05:26;5.40;99.90
29341;DHT22;16337;59.536;13.468;2024-03-06T14:07:53;5.40;99.90
29341;DHT22;16337;59.536;13.468;2024-03-06T14:10:19;5.10;99.90
29341;DHT22;16337;59.536;13.468;2024-03-06T14:12:47;5.00;99.90
29341;DHT22;16337;59.536;13.468;2024-03-06T14:15:13;4.80;99.90
29341;DHT22;16337;59.536;13.468;2024-03-06T14:17:40;4.70;99.90
29341;DHT22;16337;59.536;13.468;2024-03-06T14:20:07;4.80;99.90
29341;DHT22;16337;59.536;13.468;2024-03-06T14:22:33;5.10;99.90
29341;DHT22;16337;59.536;13.468;2024-03-06T14:24:59;5.00;99.90
29341;DHT22;16337;59.536;13.468;2024-03-06T14:27:25;4.90;99.90
29341;DHT22;16337;59.536;13.468;2024-03-06T14:29:50;4.50;99.90
29341;DHT22;16337;59.536;13.468;2024-03-06T14:32:18;4.30;99.90
29341;DHT22;16337;59.536;13.468;2024-03-06T14:34:44;4.10;99.90
29341;DHT22;16337;59.536;13.468;2024-03-06T14:37:10;4.00;99.90
29341;DHT22;16337;59.536;13.468;2024-03-06T14:39:36;4.00;99.90
29341;DHT22;16337;59.536;13.468;2024-03-06T14:42:02;3.90;99.90
29341;DHT22;16337;59.536;13.468;2024-03-06T14:44:29;3.70;99.90
29341;DHT22;16337;59.536;13.468;2024-03-06T14:46:56;3.60;99.90
29341;DHT22;16337;59.536;13.468;2024-03-06T14:49:22;3.60;99.90
29341;DHT22;16337;59.536;13.468;2024-03-06T14:51:47;3.50;99.90
29341;DHT22;16337;59.536;13.468;2024-03-06T14:54:13;3.50;99.90
29341;DHT22;16337;59.536;13.468;2024-03-06T14:56:39;3.50;99.90
29341;DHT22;16337;59.536;13.468;2024-03-06T14:59:06;3.50;99.90
29341;DHT22;16337;59.536;13.468;2024-03-06T15:01:32;3.50;99.90
29341;DHT22;16337;59.536;13.468;2024-03-06T15:03:58;3.50;99.90
29341;DHT22;16337;59.536;13.468;2024-03-06T15:06:24;3.50;99.90
29341;DHT22;16337;59.536;13.468;2024-03-06T15:08:50;3.50;99.90
29341;DHT22;16337;59.536;13.468;2024-03-06T15:11:16;3.40;99.90
29341;DHT22;16337;59.536;13.468;2024-03-06T15:13:42;3.30;99.90
29341;DHT22;16337;59.536;13.468;2024-03-06T15:16:08;3.30;99.90
29341;DHT22;16337;59.536;13.468;2024-03-06T15:18:34;3.40;99.90
29341;DHT22;16337;59.536;13.468;2024-03-06T15:20:59;3.30;99.90
29341;DHT22;16337;59.536;13.468;2024-03-06T15:23:25;3.30;99.90
29341;DHT22;16337;59.536;13.468;2024-03-06T15:25:51;3.30;99.90
29341;DHT22;16337;59.536;13.468;2024-03-06T15:28:16;3.30;99.90